UAL440 KORD-KRIC
Flight info
| Callsign | UAL440 |
|---|---|
| Flight time | 1h 22m |
| Altitude | 33000 |
| Route | GIJ FWA APE JPU EKN MOL FAK |
| Aircraft | B722/M-SDFHIRWY/C |
Departure
| Time | 2026-05-09 04:42 |
|---|---|
| Airport | Chicago O'Hare International Airport (KORD) |
Arrival
| Time | 2026-05-09 06:05 |
|---|---|
| Airport | Richmond International Airport (KRIC) |
| Time | Latitude | Longitude | Altitude | Speed | Heading |
|---|---|---|---|---|---|
| 2026-05-09 04:01 | 41.97535 | -87.90784 | 672 ft | 0 kts | 168° |
| 2026-05-09 04:25 | 41.97554 | -87.90789 | 672 ft | 4 kts | 170° |
| 2026-05-09 04:26 | 41.97580 | -87.90791 | 672 ft | 4 kts | 191° |
| 2026-05-09 04:26 | 41.97595 | -87.90776 | 670 ft | 3 kts | 248° |
| 2026-05-09 04:26 | 41.97604 | -87.90746 | 671 ft | 4 kts | 249° |
| 2026-05-09 04:26 | 41.97607 | -87.90733 | 668 ft | 0 kts | 249° |
| 2026-05-09 04:33 | 41.97606 | -87.90736 | 669 ft | 1 kts | 249° |
| 2026-05-09 04:33 | 41.97600 | -87.90770 | 672 ft | 6 kts | 265° |
| 2026-05-09 04:34 | 41.97625 | -87.90841 | 672 ft | 11 kts | 309° |
| 2026-05-09 04:34 | 41.97685 | -87.90923 | 672 ft | 13 kts | 339° |
| 2026-05-09 04:34 | 41.97775 | -87.90915 | 672 ft | 8 kts | 9° |
| 2026-05-09 04:34 | 41.97785 | -87.90890 | 672 ft | 3 kts | 166° |
| 2026-05-09 04:35 | 41.97735 | -87.90907 | 671 ft | 13 kts | 193° |
| 2026-05-09 04:35 | 41.97635 | -87.90944 | 672 ft | 16 kts | 198° |
| 2026-05-09 04:35 | 41.97579 | -87.91042 | 672 ft | 11 kts | 250° |
| 2026-05-09 04:35 | 41.97524 | -87.91089 | 672 ft | 12 kts | 156° |
| 2026-05-09 04:36 | 41.97442 | -87.91008 | 672 ft | 16 kts | 140° |
| 2026-05-09 04:36 | 41.97353 | -87.90903 | 672 ft | 18 kts | 137° |
| 2026-05-09 04:36 | 41.97263 | -87.90780 | 672 ft | 19 kts | 129° |
| 2026-05-09 04:36 | 41.97220 | -87.90638 | 672 ft | 13 kts | 99° |
| 2026-05-09 04:37 | 41.97194 | -87.90530 | 670 ft | 11 kts | 160° |
| 2026-05-09 04:37 | 41.97149 | -87.90563 | 672 ft | 8 kts | 259° |
| 2026-05-09 04:37 | 41.97151 | -87.90652 | 672 ft | 11 kts | 278° |
| 2026-05-09 04:37 | 41.97173 | -87.90759 | 672 ft | 14 kts | 293° |
| 2026-05-09 04:38 | 41.97199 | -87.90891 | 672 ft | 16 kts | 268° |
| 2026-05-09 04:38 | 41.97165 | -87.91045 | 672 ft | 18 kts | 230° |
| 2026-05-09 04:38 | 41.97069 | -87.91116 | 672 ft | 16 kts | 213° |
| 2026-05-09 04:38 | 41.97040 | -87.91248 | 673 ft | 16 kts | 269° |
| 2026-05-09 04:39 | 41.97040 | -87.91407 | 673 ft | 18 kts | 270° |
| 2026-05-09 04:39 | 41.97039 | -87.91576 | 673 ft | 18 kts | 270° |
| 2026-05-09 04:39 | 41.97039 | -87.91745 | 673 ft | 18 kts | 270° |
| 2026-05-09 04:39 | 41.97038 | -87.91922 | 672 ft | 18 kts | 269° |
| 2026-05-09 04:40 | 41.97038 | -87.92043 | 672 ft | 9 kts | 264° |
| 2026-05-09 04:40 | 41.97011 | -87.92079 | 670 ft | 0 kts | 184° |
| 2026-05-09 04:41 | 41.96986 | -87.92081 | 672 ft | 7 kts | 183° |
| 2026-05-09 04:41 | 41.96927 | -87.92077 | 669 ft | 9 kts | 155° |
| 2026-05-09 04:41 | 41.96901 | -87.91973 | 672 ft | 17 kts | 89° |
| 2026-05-09 04:41 | 41.96903 | -87.91644 | 675 ft | 63 kts | 89° |
| 2026-05-09 04:42 | 41.96904 | -87.90769 | 670 ft | 122 kts | 90° |
| 2026-05-09 04:42 | 41.96904 | -87.89422 | 719 ft | 162 kts | 92° |
| 2026-05-09 04:42 | 41.96893 | -87.87871 | 1112 ft | 174 kts | 95° |
| 2026-05-09 04:42 | 41.96849 | -87.86180 | 1545 ft | 191 kts | 96° |
| 2026-05-09 04:43 | 41.96793 | -87.84277 | 1875 ft | 216 kts | 96° |
| 2026-05-09 04:43 | 41.96725 | -87.82135 | 2364 ft | 242 kts | 96° |
| 2026-05-09 04:43 | 41.96634 | -87.79728 | 2815 ft | 274 kts | 95° |
| 2026-05-09 04:43 | 41.96491 | -87.77120 | 3809 ft | 278 kts | 96° |
| 2026-05-09 04:44 | 41.96329 | -87.74531 | 4968 ft | 282 kts | 96° |
| 2026-05-09 04:44 | 41.96140 | -87.71862 | 5918 ft | 290 kts | 96° |
| 2026-05-09 04:44 | 41.95892 | -87.69151 | 6864 ft | 295 kts | 102° |
| 2026-05-09 04:44 | 41.95035 | -87.66640 | 7760 ft | 300 kts | 124° |
| 2026-05-09 04:45 | 41.94020 | -87.64150 | 8580 ft | 308 kts | 108° |
| 2026-05-09 04:45 | 41.93517 | -87.61335 | 9494 ft | 312 kts | 95° |
| 2026-05-09 04:45 | 41.93348 | -87.59393 | 9918 ft | 321 kts | 95° |
| 2026-05-09 04:45 | 41.93031 | -87.56360 | 10453 ft | 336 kts | 96° |
| 2026-05-09 04:46 | 41.92683 | -87.53182 | 10962 ft | 351 kts | 97° |
| 2026-05-09 04:46 | 41.92306 | -87.49868 | 11475 ft | 366 kts | 98° |
| 2026-05-09 04:46 | 41.91896 | -87.46420 | 11995 ft | 381 kts | 98° |
| 2026-05-09 04:46 | 41.91447 | -87.42851 | 12515 ft | 394 kts | 99° |
| 2026-05-09 04:47 | 41.90948 | -87.39178 | 13225 ft | 400 kts | 100° |
| 2026-05-09 04:47 | 41.90492 | -87.35485 | 13960 ft | 404 kts | 98° |
| 2026-05-09 04:47 | 41.90014 | -87.31726 | 14488 ft | 411 kts | 102° |
| 2026-05-09 04:47 | 41.89439 | -87.27953 | 15181 ft | 413 kts | 101° |
| 2026-05-09 04:48 | 41.88990 | -87.24124 | 15758 ft | 419 kts | 98° |
| 2026-05-09 04:48 | 41.88567 | -87.20231 | 16345 ft | 424 kts | 102° |
| 2026-05-09 04:48 | 41.87996 | -87.16373 | 16936 ft | 429 kts | 101° |
| 2026-05-09 04:48 | 41.87469 | -87.12405 | 17529 ft | 434 kts | 101° |
| 2026-05-09 04:49 | 41.86935 | -87.08402 | 18106 ft | 439 kts | 101° |
| 2026-05-09 04:49 | 41.86387 | -87.04343 | 18600 ft | 443 kts | 101° |
| 2026-05-09 04:49 | 41.85846 | -87.00255 | 19096 ft | 447 kts | 101° |
| 2026-05-09 04:49 | 41.85286 | -86.96130 | 19575 ft | 452 kts | 101° |
| 2026-05-09 04:50 | 41.84713 | -86.91959 | 20042 ft | 457 kts | 102° |
| 2026-05-09 04:50 | 41.84128 | -86.87746 | 20507 ft | 461 kts | 102° |
| 2026-05-09 04:50 | 41.83545 | -86.83498 | 20966 ft | 465 kts | 102° |
| 2026-05-09 04:50 | 41.82959 | -86.79218 | 21412 ft | 469 kts | 101° |
| 2026-05-09 04:51 | 41.82414 | -86.74880 | 21850 ft | 473 kts | 101° |
| 2026-05-09 04:51 | 41.81852 | -86.70507 | 22283 ft | 477 kts | 101° |
| 2026-05-09 04:51 | 41.81252 | -86.66120 | 22713 ft | 481 kts | 102° |
| 2026-05-09 04:51 | 41.80637 | -86.61757 | 23108 ft | 485 kts | 102° |
| 2026-05-09 04:52 | 41.80015 | -86.57284 | 23494 ft | 488 kts | 101° |
| 2026-05-09 04:52 | 41.79413 | -86.52781 | 23773 ft | 494 kts | 102° |
| 2026-05-09 04:52 | 41.78796 | -86.48246 | 24101 ft | 497 kts | 102° |
| 2026-05-09 04:52 | 41.78167 | -86.43673 | 24425 ft | 500 kts | 103° |
| 2026-05-09 04:53 | 41.77528 | -86.39079 | 24731 ft | 503 kts | 103° |
| 2026-05-09 04:53 | 41.76877 | -86.34463 | 25051 ft | 506 kts | 104° |
| 2026-05-09 04:53 | 41.75935 | -86.29933 | 25292 ft | 503 kts | 118° |
| 2026-05-09 04:53 | 41.74145 | -86.25979 | 25610 ft | 493 kts | 135° |
| 2026-05-09 04:54 | 41.71810 | -86.22688 | 25906 ft | 487 kts | 143° |
| 2026-05-09 04:54 | 41.69350 | -86.19567 | 26202 ft | 487 kts | 144° |
| 2026-05-09 04:54 | 41.66887 | -86.16419 | 26486 ft | 491 kts | 143° |
| 2026-05-09 04:54 | 41.64434 | -86.13204 | 26733 ft | 494 kts | 143° |
| 2026-05-09 04:55 | 41.62010 | -86.09931 | 27051 ft | 497 kts | 142° |
| 2026-05-09 04:55 | 41.59581 | -86.06628 | 27336 ft | 499 kts | 142° |
| 2026-05-09 04:55 | 41.57149 | -86.03307 | 27609 ft | 501 kts | 142° |
| 2026-05-09 04:55 | 41.54725 | -85.99931 | 27896 ft | 504 kts | 141° |
| 2026-05-09 04:56 | 41.52326 | -85.96513 | 28109 ft | 507 kts | 141° |
| 2026-05-09 04:56 | 41.49906 | -85.93065 | 28363 ft | 509 kts | 141° |
| 2026-05-09 04:56 | 41.47476 | -85.89607 | 28646 ft | 511 kts | 141° |
| 2026-05-09 04:56 | 41.45039 | -85.86143 | 28971 ft | 513 kts | 141° |
| 2026-05-09 04:57 | 41.42629 | -85.82703 | 29291 ft | 515 kts | 141° |
| 2026-05-09 04:57 | 41.40171 | -85.79220 | 29601 ft | 517 kts | 141° |
| 2026-05-09 04:57 | 41.37701 | -85.75737 | 29948 ft | 518 kts | 142° |
| 2026-05-09 04:57 | 41.35225 | -85.72256 | 30306 ft | 517 kts | 142° |
| 2026-05-09 04:58 | 41.32760 | -85.68761 | 30664 ft | 517 kts | 142° |
| 2026-05-09 04:58 | 41.30317 | -85.65270 | 31029 ft | 516 kts | 142° |
| 2026-05-09 04:58 | 41.27874 | -85.61772 | 31337 ft | 517 kts | 142° |
| 2026-05-09 04:58 | 41.25425 | -85.58280 | 31550 ft | 512 kts | 142° |
| 2026-05-09 04:59 | 41.23051 | -85.54875 | 31782 ft | 498 kts | 143° |
| 2026-05-09 04:59 | 41.20681 | -85.51519 | 32017 ft | 498 kts | 143° |
| 2026-05-09 04:59 | 41.18300 | -85.48168 | 32267 ft | 500 kts | 143° |
| 2026-05-09 04:59 | 41.15900 | -85.44807 | 32532 ft | 502 kts | 144° |
| 2026-05-09 05:00 | 41.13492 | -85.41428 | 32790 ft | 503 kts | 143° |
| 2026-05-09 05:00 | 41.08633 | -85.34623 | 32873 ft | 511 kts | 143° |
| 2026-05-09 05:01 | 41.03748 | -85.27791 | 32873 ft | 509 kts | 143° |
| 2026-05-09 05:01 | 40.98886 | -85.21008 | 32862 ft | 508 kts | 143° |
| 2026-05-09 05:01 | 40.96595 | -85.17404 | 32851 ft | 520 kts | 133° |
| 2026-05-09 05:02 | 40.94985 | -85.13086 | 32857 ft | 541 kts | 113° |
| 2026-05-09 05:02 | 40.94288 | -85.08135 | 32894 ft | 549 kts | 101° |
| 2026-05-09 05:02 | 40.93564 | -85.03193 | 32881 ft | 544 kts | 112° |
| 2026-05-09 05:03 | 40.90574 | -84.94119 | 32881 ft | 537 kts | 122° |
| 2026-05-09 05:03 | 40.87429 | -84.85165 | 32882 ft | 538 kts | 121° |
| 2026-05-09 05:04 | 40.84421 | -84.76097 | 32876 ft | 538 kts | 120° |
| 2026-05-09 05:04 | 40.81509 | -84.66967 | 32872 ft | 539 kts | 119° |
| 2026-05-09 05:05 | 40.78605 | -84.57776 | 32873 ft | 544 kts | 119° |
| 2026-05-09 05:05 | 40.75746 | -84.48642 | 32896 ft | 542 kts | 118° |
| 2026-05-09 05:06 | 40.72881 | -84.39451 | 32894 ft | 542 kts | 118° |
| 2026-05-09 05:06 | 40.69992 | -84.30286 | 32880 ft | 541 kts | 118° |
| 2026-05-09 05:07 | 40.67099 | -84.21066 | 32877 ft | 545 kts | 118° |
| 2026-05-09 05:07 | 40.64177 | -84.11845 | 32876 ft | 544 kts | 118° |
| 2026-05-09 05:08 | 40.61260 | -84.02702 | 32875 ft | 544 kts | 118° |
| 2026-05-09 05:08 | 40.58316 | -83.93533 | 32877 ft | 544 kts | 118° |
| 2026-05-09 05:09 | 40.55366 | -83.84387 | 32891 ft | 542 kts | 118° |
| 2026-05-09 05:09 | 40.52423 | -83.75242 | 32892 ft | 543 kts | 118° |
| 2026-05-09 05:10 | 40.49490 | -83.66114 | 32896 ft | 543 kts | 118° |
| 2026-05-09 05:10 | 40.46558 | -83.56971 | 32898 ft | 543 kts | 118° |
| 2026-05-09 05:11 | 40.43630 | -83.47838 | 32895 ft | 541 kts | 118° |
| 2026-05-09 05:11 | 40.40711 | -83.38725 | 32893 ft | 541 kts | 118° |
| 2026-05-09 05:12 | 40.37785 | -83.29694 | 32899 ft | 541 kts | 119° |
| 2026-05-09 05:12 | 40.34823 | -83.20620 | 32900 ft | 541 kts | 119° |
| 2026-05-09 05:13 | 40.31841 | -83.11550 | 32907 ft | 541 kts | 119° |
| 2026-05-09 05:13 | 40.28845 | -83.02501 | 32905 ft | 541 kts | 119° |
| 2026-05-09 05:14 | 40.25839 | -82.93458 | 32861 ft | 541 kts | 119° |
| 2026-05-09 05:14 | 40.22843 | -82.84446 | 32906 ft | 540 kts | 119° |
| 2026-05-09 05:15 | 40.19852 | -82.75436 | 32910 ft | 538 kts | 119° |
| 2026-05-09 05:15 | 40.16866 | -82.66435 | 32904 ft | 538 kts | 119° |
| 2026-05-09 05:16 | 40.13761 | -82.57631 | 32905 ft | 533 kts | 126° |
| 2026-05-09 05:16 | 40.09609 | -82.49747 | 32918 ft | 523 kts | 136° |
| 2026-05-09 05:17 | 40.05118 | -82.42270 | 32919 ft | 523 kts | 136° |
| 2026-05-09 05:17 | 40.00657 | -82.34757 | 32903 ft | 523 kts | 135° |
| 2026-05-09 05:18 | 39.96212 | -82.27195 | 32913 ft | 526 kts | 135° |
| 2026-05-09 05:18 | 39.91755 | -82.19639 | 32911 ft | 525 kts | 134° |
| 2026-05-09 05:19 | 39.87299 | -82.12089 | 32909 ft | 525 kts | 134° |
| 2026-05-09 05:19 | 39.82860 | -82.04545 | 32911 ft | 525 kts | 135° |
| 2026-05-09 05:20 | 39.78451 | -81.97047 | 32913 ft | 525 kts | 134° |
| 2026-05-09 05:20 | 39.74012 | -81.89500 | 32885 ft | 526 kts | 134° |
| 2026-05-09 05:21 | 39.69530 | -81.81912 | 32909 ft | 530 kts | 134° |
| 2026-05-09 05:21 | 39.65049 | -81.74319 | 32903 ft | 529 kts | 134° |
| 2026-05-09 05:22 | 39.60576 | -81.66736 | 32901 ft | 529 kts | 134° |
| 2026-05-09 05:22 | 39.56094 | -81.59117 | 32915 ft | 532 kts | 134° |
| 2026-05-09 05:23 | 39.51611 | -81.51498 | 32915 ft | 532 kts | 134° |
| 2026-05-09 05:23 | 39.47116 | -81.43882 | 32899 ft | 533 kts | 135° |
| 2026-05-09 05:24 | 39.42693 | -81.36144 | 32899 ft | 539 kts | 129° |
| 2026-05-09 05:24 | 39.39072 | -81.27586 | 32892 ft | 544 kts | 122° |
| 2026-05-09 05:25 | 39.35667 | -81.18909 | 32914 ft | 545 kts | 122° |
| 2026-05-09 05:25 | 39.30390 | -81.05924 | 32910 ft | 544 kts | 123° |
| 2026-05-09 05:26 | 39.26838 | -80.97290 | 32906 ft | 544 kts | 124° |
| 2026-05-09 05:26 | 39.23282 | -80.88686 | 32903 ft | 544 kts | 124° |
| 2026-05-09 05:27 | 39.21515 | -80.84359 | 32767 ft | 547 kts | 124° |
| 2026-05-09 05:27 | 39.19736 | -80.80024 | 32238 ft | 543 kts | 124° |
| 2026-05-09 05:27 | 39.17987 | -80.75748 | 31741 ft | 534 kts | 123° |
| 2026-05-09 05:27 | 39.16265 | -80.71537 | 31233 ft | 530 kts | 123° |
| 2026-05-09 05:28 | 39.14506 | -80.67291 | 30750 ft | 546 kts | 123° |
| 2026-05-09 05:28 | 39.12706 | -80.62994 | 30296 ft | 540 kts | 123° |
| 2026-05-09 05:28 | 39.10939 | -80.58769 | 29806 ft | 532 kts | 123° |
| 2026-05-09 05:28 | 39.09205 | -80.54599 | 29241 ft | 526 kts | 123° |
| 2026-05-09 05:29 | 39.07487 | -80.50473 | 28926 ft | 519 kts | 123° |
| 2026-05-09 05:29 | 39.05774 | -80.46368 | 28926 ft | 521 kts | 123° |
| 2026-05-09 05:29 | 39.02309 | -80.38141 | 28933 ft | 524 kts | 123° |
| 2026-05-09 05:30 | 38.98845 | -80.29978 | 28954 ft | 523 kts | 123° |
| 2026-05-09 05:30 | 38.95369 | -80.21754 | 28961 ft | 524 kts | 122° |
| 2026-05-09 05:31 | 38.91919 | -80.13499 | 28964 ft | 525 kts | 123° |
| 2026-05-09 05:31 | 38.88593 | -80.07087 | 28965 ft | 511 kts | 140° |
| 2026-05-09 05:32 | 38.85068 | -80.03232 | 28988 ft | 497 kts | 153° |
| 2026-05-09 05:32 | 38.83170 | -80.01498 | 28972 ft | 496 kts | 154° |
| 2026-05-09 05:32 | 38.77521 | -79.96373 | 28989 ft | 497 kts | 153° |
| 2026-05-09 05:33 | 38.71972 | -79.91177 | 28983 ft | 498 kts | 152° |
| 2026-05-09 05:33 | 38.66440 | -79.85805 | 29002 ft | 498 kts | 151° |
| 2026-05-09 05:34 | 38.60923 | -79.80443 | 28997 ft | 498 kts | 151° |
| 2026-05-09 05:34 | 38.55401 | -79.75055 | 29005 ft | 498 kts | 151° |
| 2026-05-09 05:35 | 38.49850 | -79.69695 | 29004 ft | 499 kts | 151° |
| 2026-05-09 05:35 | 38.44329 | -79.64311 | 29004 ft | 500 kts | 150° |
| 2026-05-09 05:36 | 38.38815 | -79.58871 | 28999 ft | 501 kts | 150° |
| 2026-05-09 05:36 | 38.33297 | -79.53536 | 29000 ft | 501 kts | 151° |
| 2026-05-09 05:37 | 38.27731 | -79.48166 | 29004 ft | 501 kts | 151° |
| 2026-05-09 05:37 | 38.22178 | -79.42799 | 28993 ft | 501 kts | 150° |
| 2026-05-09 05:38 | 38.16667 | -79.37359 | 28505 ft | 502 kts | 150° |
| 2026-05-09 05:38 | 38.13916 | -79.34660 | 28071 ft | 496 kts | 150° |
| 2026-05-09 05:38 | 38.11198 | -79.32009 | 27529 ft | 488 kts | 150° |
| 2026-05-09 05:39 | 38.08520 | -79.29391 | 27011 ft | 482 kts | 150° |
| 2026-05-09 05:39 | 38.05880 | -79.26808 | 26500 ft | 477 kts | 149° |
| 2026-05-09 05:39 | 38.03265 | -79.24246 | 25999 ft | 471 kts | 149° |
| 2026-05-09 05:39 | 38.00681 | -79.21728 | 25511 ft | 465 kts | 149° |
| 2026-05-09 05:40 | 37.98123 | -79.19259 | 25024 ft | 460 kts | 149° |
| 2026-05-09 05:40 | 37.95592 | -79.16813 | 24635 ft | 455 kts | 149° |
| 2026-05-09 05:40 | 37.93092 | -79.14400 | 24155 ft | 449 kts | 148° |
| 2026-05-09 05:40 | 37.90617 | -79.12015 | 23691 ft | 444 kts | 148° |
| 2026-05-09 05:41 | 37.88264 | -79.09488 | 23122 ft | 447 kts | 137° |
| 2026-05-09 05:41 | 37.86531 | -79.06217 | 22536 ft | 451 kts | 120° |
| 2026-05-09 05:41 | 37.85338 | -79.02587 | 22006 ft | 453 kts | 112° |
| 2026-05-09 05:41 | 37.84580 | -78.98735 | 21491 ft | 450 kts | 102° |
| 2026-05-09 05:42 | 37.83902 | -78.94895 | 20988 ft | 445 kts | 108° |
| 2026-05-09 05:42 | 37.83085 | -78.91136 | 20495 ft | 441 kts | 109° |
| 2026-05-09 05:42 | 37.82221 | -78.87432 | 20003 ft | 436 kts | 111° |
| 2026-05-09 05:42 | 37.81201 | -78.83840 | 19525 ft | 432 kts | 114° |
| 2026-05-09 05:43 | 37.80152 | -78.80282 | 19047 ft | 428 kts | 114° |
| 2026-05-09 05:43 | 37.79115 | -78.76767 | 18563 ft | 425 kts | 114° |
| 2026-05-09 05:43 | 37.78097 | -78.73284 | 18084 ft | 421 kts | 112° |
| 2026-05-09 05:43 | 37.77124 | -78.69819 | 17550 ft | 416 kts | 112° |
| 2026-05-09 05:44 | 37.76154 | -78.66379 | 17023 ft | 414 kts | 112° |
| 2026-05-09 05:44 | 37.75186 | -78.62961 | 16504 ft | 411 kts | 112° |
| 2026-05-09 05:44 | 37.74239 | -78.59630 | 16008 ft | 407 kts | 112° |
| 2026-05-09 05:44 | 37.73284 | -78.56280 | 15509 ft | 403 kts | 112° |
| 2026-05-09 05:45 | 37.72333 | -78.52964 | 15026 ft | 400 kts | 112° |
| 2026-05-09 05:45 | 37.71387 | -78.49677 | 14535 ft | 397 kts | 112° |
| 2026-05-09 05:45 | 37.70444 | -78.46414 | 14073 ft | 394 kts | 111° |
| 2026-05-09 05:45 | 37.69500 | -78.43179 | 13575 ft | 390 kts | 112° |
| 2026-05-09 05:46 | 37.68561 | -78.39981 | 13052 ft | 387 kts | 112° |
| 2026-05-09 05:46 | 37.67623 | -78.36802 | 12532 ft | 383 kts | 112° |
| 2026-05-09 05:46 | 37.66701 | -78.33667 | 12022 ft | 379 kts | 111° |
| 2026-05-09 05:46 | 37.65805 | -78.30558 | 11525 ft | 376 kts | 111° |
| 2026-05-09 05:47 | 37.64916 | -78.27521 | 11036 ft | 372 kts | 111° |
| 2026-05-09 05:47 | 37.64026 | -78.24436 | 10545 ft | 368 kts | 111° |
| 2026-05-09 05:47 | 37.63149 | -78.21426 | 10071 ft | 360 kts | 111° |
| 2026-05-09 05:47 | 37.62306 | -78.18538 | 9946 ft | 340 kts | 111° |
| 2026-05-09 05:48 | 37.61507 | -78.15836 | 9938 ft | 318 kts | 112° |
| 2026-05-09 05:48 | 37.60774 | -78.13314 | 9939 ft | 305 kts | 111° |
| 2026-05-09 05:48 | 37.60036 | -78.10807 | 9770 ft | 307 kts | 112° |
| 2026-05-09 05:48 | 37.59283 | -78.08271 | 9380 ft | 308 kts | 112° |
| 2026-05-09 05:49 | 37.58532 | -78.05750 | 8987 ft | 306 kts | 112° |
| 2026-05-09 05:49 | 37.57817 | -78.03241 | 8581 ft | 303 kts | 111° |
| 2026-05-09 05:49 | 37.57100 | -78.00747 | 8209 ft | 301 kts | 112° |
| 2026-05-09 05:49 | 37.56383 | -77.98284 | 7835 ft | 298 kts | 112° |
| 2026-05-09 05:50 | 37.55671 | -77.95837 | 7463 ft | 296 kts | 111° |
| 2026-05-09 05:50 | 37.55030 | -77.93376 | 7108 ft | 293 kts | 109° |
| 2026-05-09 05:50 | 37.54523 | -77.90898 | 6739 ft | 292 kts | 104° |
| 2026-05-09 05:50 | 37.54211 | -77.88378 | 6375 ft | 290 kts | 100° |
| 2026-05-09 05:51 | 37.53949 | -77.85903 | 6012 ft | 287 kts | 100° |
| 2026-05-09 05:51 | 37.53691 | -77.83445 | 5749 ft | 279 kts | 100° |
| 2026-05-09 05:51 | 37.53527 | -77.81022 | 5493 ft | 275 kts | 92° |
| 2026-05-09 05:51 | 37.53692 | -77.78641 | 5215 ft | 270 kts | 82° |
| 2026-05-09 05:52 | 37.54116 | -77.76377 | 4946 ft | 262 kts | 77° |
| 2026-05-09 05:52 | 37.54604 | -77.74188 | 4665 ft | 255 kts | 77° |
| 2026-05-09 05:52 | 37.55085 | -77.72060 | 4390 ft | 250 kts | 77° |
| 2026-05-09 05:52 | 37.55545 | -77.69994 | 4113 ft | 245 kts | 77° |
| 2026-05-09 05:53 | 37.55991 | -77.67963 | 3848 ft | 237 kts | 78° |
| 2026-05-09 05:53 | 37.56420 | -77.65994 | 3589 ft | 230 kts | 78° |
| 2026-05-09 05:53 | 37.56837 | -77.64057 | 3331 ft | 228 kts | 78° |
| 2026-05-09 05:53 | 37.57248 | -77.62137 | 3072 ft | 226 kts | 79° |
| 2026-05-09 05:54 | 37.57655 | -77.60234 | 2805 ft | 223 kts | 79° |
| 2026-05-09 05:54 | 37.58047 | -77.58405 | 2772 ft | 210 kts | 79° |
| 2026-05-09 05:54 | 37.58420 | -77.56666 | 2784 ft | 202 kts | 80° |
| 2026-05-09 05:54 | 37.58788 | -77.54955 | 2788 ft | 202 kts | 80° |
| 2026-05-09 05:55 | 37.59155 | -77.53237 | 2792 ft | 203 kts | 79° |
| 2026-05-09 05:55 | 37.59521 | -77.51524 | 2797 ft | 202 kts | 80° |
| 2026-05-09 05:55 | 37.59886 | -77.49810 | 2801 ft | 202 kts | 80° |
| 2026-05-09 05:55 | 37.60252 | -77.48091 | 2802 ft | 203 kts | 79° |
| 2026-05-09 05:56 | 37.60618 | -77.46365 | 2802 ft | 204 kts | 79° |
| 2026-05-09 05:56 | 37.60981 | -77.44663 | 2804 ft | 201 kts | 80° |
| 2026-05-09 05:56 | 37.61343 | -77.42964 | 2804 ft | 202 kts | 80° |
| 2026-05-09 05:56 | 37.61705 | -77.41252 | 2805 ft | 202 kts | 80° |
| 2026-05-09 05:57 | 37.62071 | -77.39529 | 2803 ft | 203 kts | 79° |
| 2026-05-09 05:57 | 37.62621 | -77.37884 | 2756 ft | 207 kts | 51° |
| 2026-05-09 05:57 | 37.63855 | -77.37046 | 2778 ft | 204 kts | 360° |
| 2026-05-09 05:57 | 37.65169 | -77.37453 | 2827 ft | 193 kts | 327° |
| 2026-05-09 05:58 | 37.66382 | -77.38196 | 2815 ft | 195 kts | 330° |
| 2026-05-09 05:58 | 37.67633 | -77.38853 | 2803 ft | 194 kts | 329° |
| 2026-05-09 05:58 | 37.68874 | -77.39532 | 2804 ft | 194 kts | 329° |
| 2026-05-09 05:58 | 37.70119 | -77.40207 | 2801 ft | 195 kts | 329° |
| 2026-05-09 05:59 | 37.71257 | -77.41075 | 2765 ft | 186 kts | 302° |
| 2026-05-09 05:59 | 37.71579 | -77.42466 | 2777 ft | 164 kts | 251° |
| 2026-05-09 05:59 | 37.70891 | -77.43483 | 2789 ft | 158 kts | 201° |
| 2026-05-09 05:59 | 37.69781 | -77.43314 | 2832 ft | 169 kts | 165° |
| 2026-05-09 06:00 | 37.68674 | -77.42803 | 2819 ft | 169 kts | 168° |
| 2026-05-09 06:00 | 37.67557 | -77.42357 | 2803 ft | 166 kts | 175° |
| 2026-05-09 06:00 | 37.66480 | -77.42172 | 2778 ft | 149 kts | 178° |
| 2026-05-09 06:00 | 37.65456 | -77.41991 | 2612 ft | 148 kts | 178° |
| 2026-05-09 06:01 | 37.64439 | -77.41814 | 2479 ft | 146 kts | 178° |
| 2026-05-09 06:01 | 37.63418 | -77.41593 | 2498 ft | 151 kts | 173° |
| 2026-05-09 06:01 | 37.62436 | -77.41050 | 2501 ft | 158 kts | 155° |
| 2026-05-09 06:01 | 37.61515 | -77.40271 | 2482 ft | 160 kts | 154° |
| 2026-05-09 06:02 | 37.60582 | -77.39521 | 2289 ft | 157 kts | 156° |
| 2026-05-09 06:02 | 37.59676 | -77.38791 | 2074 ft | 151 kts | 154° |
| 2026-05-09 06:02 | 37.58819 | -77.38101 | 1867 ft | 142 kts | 156° |
| 2026-05-09 06:02 | 37.58023 | -77.37462 | 1702 ft | 132 kts | 154° |
| 2026-05-09 06:03 | 37.57267 | -77.36858 | 1502 ft | 127 kts | 155° |
| 2026-05-09 06:03 | 37.56531 | -77.36247 | 1320 ft | 127 kts | 153° |
| 2026-05-09 06:03 | 37.55783 | -77.35657 | 1171 ft | 128 kts | 154° |
| 2026-05-09 06:03 | 37.55021 | -77.35066 | 1006 ft | 129 kts | 153° |
| 2026-05-09 06:04 | 37.54263 | -77.34457 | 829 ft | 131 kts | 149° |
| 2026-05-09 06:04 | 37.53493 | -77.33813 | 670 ft | 136 kts | 150° |
| 2026-05-09 06:04 | 37.52686 | -77.33181 | 447 ft | 136 kts | 153° |
| 2026-05-09 06:04 | 37.51905 | -77.32547 | 282 ft | 130 kts | 151° |
| 2026-05-09 06:05 | 37.51178 | -77.31976 | 178 ft | 110 kts | 148° |
| 2026-05-09 06:05 | 37.50687 | -77.31578 | 178 ft | 60 kts | 147° |
| 2026-05-09 06:05 | 37.50445 | -77.31385 | 179 ft | 30 kts | 148° |
| 2026-05-09 06:05 | 37.50336 | -77.31298 | 177 ft | 10 kts | 151° |
| 2026-05-09 06:06 | 37.50276 | -77.31327 | 176 ft | 12 kts | 236° |
| 2026-05-09 06:06 | 37.50226 | -77.31424 | 176 ft | 14 kts | 237° |
| 2026-05-09 06:06 | 37.50219 | -77.31504 | 176 ft | 10 kts | 315° |
| 2026-05-09 06:06 | 37.50287 | -77.31564 | 176 ft | 14 kts | 327° |
| 2026-05-09 06:07 | 37.50365 | -77.31633 | 176 ft | 13 kts | 307° |
| 2026-05-09 06:07 | 37.50386 | -77.31753 | 176 ft | 16 kts | 275° |
| 2026-05-09 06:07 | 37.50393 | -77.31902 | 176 ft | 18 kts | 273° |
| 2026-05-09 06:07 | 37.50402 | -77.32075 | 176 ft | 21 kts | 274° |
| 2026-05-09 06:08 | 37.50413 | -77.32253 | 176 ft | 20 kts | 274° |
| 2026-05-09 06:08 | 37.50422 | -77.32394 | 176 ft | 15 kts | 275° |
| 2026-05-09 06:08 | 37.50430 | -77.32522 | 176 ft | 15 kts | 274° |
| 2026-05-09 06:08 | 37.50437 | -77.32649 | 176 ft | 14 kts | 274° |
| 2026-05-09 06:09 | 37.50445 | -77.32772 | 177 ft | 14 kts | 276° |
| 2026-05-09 06:09 | 37.50463 | -77.32888 | 176 ft | 13 kts | 284° |
| 2026-05-09 06:09 | 37.50486 | -77.32981 | 176 ft | 9 kts | 309° |
| 2026-05-09 06:09 | 37.50543 | -77.32996 | 176 ft | 9 kts | 11° |
| 2026-05-09 06:10 | 37.50605 | -77.32979 | 176 ft | 9 kts | 13° |
| 2026-05-09 06:10 | 37.50663 | -77.32963 | 176 ft | 7 kts | 5° |
| 2026-05-09 06:10 | 37.50699 | -77.32984 | 176 ft | 4 kts | 290° |
| 2026-05-09 06:10 | 37.50699 | -77.33024 | 176 ft | 5 kts | 261° |
| 2026-05-09 06:11 | 37.50693 | -77.33062 | 176 ft | 3 kts | 258° |
| 2026-05-09 06:11 | 37.50692 | -77.33070 | 176 ft | 0 kts | 258° |
| 2026-05-09 06:11 | 37.50691 | -77.33074 | 176 ft | 0 kts | 258° |